Terminal Aerodrome Forecast
Issued by NWS Atlanta, GA

Home | Current Version | Previous Version | Text Only | Print | Product List | Glossary On
Versions: 1 2 3 4 5 6 7 8 9 10 11 12 13 14 15 16 17 18 19 20 21 22 23
000
FTUS42 KFFC 051730
TAFMCN
TAF
KMCN 051730Z 0518/0618 26010G20KT P6SM SCT020 OVC040
      TEMPO 0518/0520 4SM SHRA BR BKN025
     FM052000 32010G20KT 6SM -RA BR SCT007 BKN015
     FM060300 35010KT P6SM BKN025
     FM061200 02008KT P6SM OVC020
     FM061500 05007KT P6SM BKN025=

USA.gov is the U.S. government's official web portal to all federal, state and local government web resources and services.